createdAt,value
2019-03-16T00:00:35.526Z,6.70
2019-03-16T00:05:41.217Z,6.40
2019-03-16T00:10:45.964Z,6.20
2019-03-16T00:15:50.708Z,6.00
2019-03-16T00:20:55.443Z,5.90
2019-03-16T00:25:59.854Z,5.90
2019-03-16T00:31:04.249Z,5.90
2019-03-16T00:36:08.648Z,5.90
2019-03-16T00:41:13.463Z,5.60
2019-03-16T00:46:17.927Z,5.50
2019-03-16T00:51:22.665Z,5.40
2019-03-16T00:56:27.292Z,5.40
2019-03-16T01:07:53.748Z,5.00
2019-03-16T01:12:58.128Z,5.20
2019-03-16T01:18:02.559Z,5.30
2019-03-16T01:23:08.513Z,5.40
2019-03-16T01:28:13.049Z,5.40
2019-03-16T01:33:29.080Z,5.40
2019-03-16T01:38:33.508Z,5.40
2019-03-16T01:43:37.943Z,5.40
2019-03-16T01:48:44.540Z,5.40
2019-03-16T01:53:49.268Z,5.40
2019-03-16T01:58:53.777Z,5.40
2019-03-16T02:04:00.292Z,5.40
2019-03-16T02:09:07.182Z,5.40
2019-03-16T02:14:12.032Z,5.40
2019-03-16T02:19:16.667Z,5.30
2019-03-16T02:24:21.102Z,5.40
2019-03-16T02:29:25.538Z,5.40
2019-03-16T02:34:30.048Z,5.40
2019-03-16T02:39:34.709Z,5.40
2019-03-16T02:44:39.147Z,5.40
2019-03-16T02:49:43.888Z,5.50
2019-03-16T02:54:48.645Z,5.50
2019-03-16T02:59:53.062Z,5.50
2019-03-16T03:04:58.398Z,5.60
2019-03-16T03:10:03.228Z,5.50
2019-03-16T03:15:09.016Z,5.60
2019-03-16T03:20:13.540Z,5.60
2019-03-16T03:25:18.308Z,5.70
2019-03-16T03:30:23.089Z,5.60
2019-03-16T03:35:29.445Z,5.60
2019-03-16T03:40:33.762Z,5.70
2019-03-16T03:45:38.198Z,5.70
2019-03-16T03:50:43.844Z,5.70
2019-03-16T03:55:48.376Z,5.70
2019-03-16T04:00:53.037Z,5.60
2019-03-16T04:05:57.475Z,5.70
2019-03-16T04:11:01.912Z,5.60
2019-03-16T04:16:06.340Z,5.60
2019-03-16T04:21:10.776Z,5.60
2019-03-16T04:26:15.343Z,5.60
2019-03-16T04:31:20.260Z,5.70
2019-03-16T04:36:25.004Z,5.70
2019-03-16T04:41:29.439Z,5.70
2019-03-16T04:46:33.842Z,5.70
2019-03-16T04:51:38.611Z,5.70
2019-03-16T04:56:43.124Z,5.80
2019-03-16T05:01:47.787Z,5.70
2019-03-16T05:06:52.222Z,5.80
2019-03-16T05:11:56.630Z,5.80
2019-03-16T05:17:01.094Z,5.80
2019-03-16T05:22:05.497Z,5.80
2019-03-16T05:27:09.962Z,5.80
2019-03-16T05:32:14.497Z,5.80
2019-03-16T05:37:19.141Z,5.70
2019-03-16T05:42:23.571Z,5.60
2019-03-16T05:47:28.004Z,5.70
2019-03-16T05:52:32.522Z,5.60
2019-03-16T05:57:36.963Z,5.60
2019-03-16T06:02:42.852Z,5.70
2019-03-16T06:07:47.255Z,5.70
2019-03-16T06:12:53.663Z,5.80
2019-03-16T06:17:58.305Z,5.80
2019-03-16T06:23:02.752Z,5.80
2019-03-16T06:28:07.494Z,5.80
2019-03-16T06:33:12.229Z,5.90
2019-03-16T06:38:16.654Z,6.00
2019-03-16T06:43:21.400Z,6.00
2019-03-16T06:48:25.882Z,6.10
2019-03-16T06:53:30.345Z,6.20
2019-03-16T06:58:34.986Z,6.20
2019-03-16T07:03:39.441Z,6.20
2019-03-16T07:08:43.951Z,6.30
2019-03-16T07:13:48.385Z,6.50
2019-03-16T07:18:58.624Z,6.40
2019-03-16T07:23:59.051Z,6.40
2019-03-16T07:29:03.458Z,6.30
2019-03-16T07:34:08.202Z,6.30
2019-03-16T07:39:12.635Z,6.20
2019-03-16T07:44:17.158Z,6.10
2019-03-16T07:49:22.116Z,6.40
2019-03-16T07:54:26.858Z,6.30
2019-03-16T07:59:31.293Z,6.30
2019-03-16T08:04:35.627Z,6.50
2019-03-16T08:09:40.163Z,6.70
2019-03-16T08:14:44.596Z,6.70
2019-03-16T08:19:49.338Z,6.60
2019-03-16T08:24:54.082Z,6.80
2019-03-16T08:29:58.522Z,6.80
2019-03-16T08:35:02.954Z,6.90
2019-03-16T08:40:09.756Z,7.00
2019-03-16T08:45:14.583Z,7.10
2019-03-16T08:50:19.024Z,6.80
2019-03-16T08:55:23.763Z,6.50
2019-03-16T09:00:28.275Z,6.30
2019-03-16T09:05:32.935Z,6.60
2019-03-16T09:10:39.215Z,6.90
2019-03-16T09:15:43.955Z,6.90
2019-03-16T09:20:48.381Z,7.10
2019-03-16T09:25:52.799Z,7.30
2019-03-16T09:30:57.570Z,7.50
2019-03-16T09:36:02.315Z,7.60
2019-03-16T09:41:06.760Z,7.60
2019-03-16T09:46:11.503Z,7.70
2019-03-16T09:51:15.918Z,7.70
2019-03-16T09:56:21.276Z,7.70
2019-03-16T10:01:25.787Z,7.80
2019-03-16T10:06:30.227Z,7.60
2019-03-16T10:11:36.444Z,7.40
2019-03-16T10:16:40.856Z,7.50
2019-03-16T10:21:45.600Z,7.90
2019-03-16T10:26:50.039Z,7.90
2019-03-16T10:31:54.467Z,7.80
2019-03-16T10:36:58.944Z,7.70
2019-03-16T10:42:03.651Z,7.70
2019-03-16T10:47:09.618Z,7.80
2019-03-16T10:52:14.061Z,7.80
2019-03-16T10:57:18.596Z,7.90
2019-03-16T11:02:23.000Z,8.10
2019-03-16T11:07:27.971Z,8.00
2019-03-16T11:12:33.322Z,7.90
2019-03-16T11:17:37.840Z,7.90
2019-03-16T11:22:42.505Z,7.80
2019-03-16T11:27:46.939Z,7.50
2019-03-16T11:32:51.369Z,7.60
2019-03-16T11:37:55.806Z,7.90
2019-03-16T11:43:00.548Z,8.00
2019-03-16T11:48:06.260Z,8.30
2019-03-16T11:53:10.952Z,8.60
2019-03-16T11:58:15.692Z,9.10
2019-03-16T12:03:20.438Z,9.30
2019-03-16T12:08:24.879Z,9.10
2019-03-16T12:13:30.226Z,8.50
2019-03-16T12:18:34.659Z,8.20
2019-03-16T12:23:40.322Z,8.10
2019-03-16T12:28:45.069Z,7.90
2019-03-16T12:33:49.538Z,7.70
2019-03-16T12:38:53.943Z,7.70
2019-03-16T12:43:58.441Z,7.90
2019-03-16T12:49:03.187Z,7.90
2019-03-16T12:54:07.856Z,8.10
2019-03-16T12:59:12.387Z,8.40
2019-03-16T13:04:17.014Z,8.60
2019-03-16T13:09:21.770Z,8.90
2019-03-16T13:14:26.490Z,9.00
2019-03-16T13:19:31.254Z,8.70
2019-03-16T13:24:35.691Z,8.50
2019-03-16T13:29:40.429Z,8.40
2019-03-16T13:34:45.171Z,8.60
2019-03-16T13:39:49.893Z,8.70
2019-03-16T13:44:54.422Z,8.70
2019-03-16T13:49:58.865Z,8.60
2019-03-16T13:55:04.113Z,8.20
2019-03-16T14:00:19.514Z,8.40
2019-03-16T14:05:24.043Z,8.80
2019-03-16T14:10:31.040Z,9.20
2019-03-16T14:15:35.917Z,9.30
2019-03-16T14:20:40.750Z,9.40
2019-03-16T14:25:45.263Z,9.40
2019-03-16T14:30:49.927Z,9.30
2019-03-16T14:35:54.726Z,9.00
2019-03-16T14:40:59.409Z,9.00
2019-03-16T14:46:04.048Z,9.00
2019-03-16T14:51:08.898Z,8.90
2019-03-16T14:56:13.409Z,8.80
2019-03-16T15:01:17.838Z,8.90
2019-03-16T15:06:22.505Z,8.80
2019-03-16T15:11:28.786Z,8.80
2019-03-16T15:16:33.788Z,8.80
2019-03-16T15:21:38.268Z,8.80
2019-03-16T15:26:43.019Z,8.90
2019-03-16T15:31:47.441Z,9.00
2019-03-16T15:36:51.953Z,8.90
2019-03-16T15:41:56.596Z,8.80
2019-03-16T15:47:01.364Z,9.00
2019-03-16T15:52:05.798Z,9.00
2019-03-16T15:57:10.230Z,8.90
2019-03-16T16:02:14.673Z,8.90
2019-03-16T16:07:19.227Z,8.60
2019-03-16T16:12:23.851Z,8.50
2019-03-16T16:17:28.582Z,8.40
2019-03-16T16:22:34.251Z,8.10
2019-03-16T16:27:38.812Z,7.90
2019-03-16T16:32:43.424Z,7.70
2019-03-16T16:37:48.110Z,7.70
2019-03-16T16:42:54.134Z,7.70
2019-03-16T16:47:58.604Z,7.60
2019-03-16T16:53:03.628Z,7.40
2019-03-16T16:58:08.433Z,7.40
2019-03-16T17:03:13.388Z,7.30
2019-03-16T17:08:18.149Z,7.40
2019-03-16T17:13:22.909Z,7.40
2019-03-16T17:18:27.417Z,7.20
2019-03-16T17:23:31.841Z,7.20
2019-03-16T17:28:36.788Z,7.20
2019-03-16T17:33:41.230Z,7.20
2019-03-16T17:38:45.755Z,7.10
2019-03-16T17:43:50.432Z,7.10
2019-03-16T17:48:55.163Z,7.00
2019-03-16T17:53:59.609Z,7.00
2019-03-16T17:59:04.338Z,7.10
2019-03-16T18:04:09.085Z,7.10
2019-03-16T18:09:13.825Z,7.10
2019-03-16T18:14:18.565Z,7.10
2019-03-16T18:19:23.283Z,7.10
2019-03-16T18:24:28.876Z,7.10
2019-03-16T18:29:33.715Z,7.10
2019-03-16T18:34:38.231Z,7.10
2019-03-16T18:39:42.888Z,7.10
2019-03-16T18:44:47.631Z,7.10
2019-03-16T18:49:52.063Z,7.10
2019-03-16T18:54:56.501Z,7.00
2019-03-16T19:00:00.947Z,7.00
2019-03-16T19:05:08.601Z,7.00
2019-03-16T19:10:14.756Z,7.00
2019-03-16T19:15:19.771Z,6.90
2019-03-16T19:20:24.292Z,6.90
2019-03-16T19:25:28.917Z,6.80
2019-03-16T19:30:33.411Z,6.70
2019-03-16T19:35:38.101Z,6.70
2019-03-16T19:40:42.636Z,6.70
2019-03-16T19:45:47.299Z,6.70
2019-03-16T19:50:52.020Z,6.60
2019-03-16T19:55:56.782Z,6.70
2019-03-16T20:01:01.529Z,6.60
2019-03-16T20:06:07.501Z,6.50
2019-03-16T20:11:12.541Z,6.50
2019-03-16T20:16:17.283Z,6.50
2019-03-16T20:21:22.520Z,6.60
2019-03-16T20:26:32.863Z,6.70
2019-03-16T20:31:46.388Z,6.60
2019-03-16T20:36:44.078Z,6.80
2019-03-16T20:41:50.844Z,6.80
2019-03-16T20:46:54.955Z,6.90
2019-03-16T20:51:59.689Z,6.80
2019-03-16T20:57:04.229Z,6.90
2019-03-16T21:02:08.866Z,6.80
2019-03-16T21:07:13.379Z,6.90
2019-03-16T21:12:18.051Z,7.00
2019-03-16T21:17:22.784Z,6.90
2019-03-16T21:22:36.180Z,6.90
2019-03-16T21:27:33.470Z,7.00
2019-03-16T21:32:38.216Z,6.90
2019-03-16T21:37:42.750Z,6.90
2019-03-16T21:42:47.416Z,7.00
2019-03-16T21:47:59.834Z,7.00
2019-03-16T21:52:58.211Z,7.00
2019-03-16T21:58:02.870Z,6.90
2019-03-16T22:03:07.306Z,6.90
2019-03-16T22:08:12.353Z,6.80
2019-03-16T22:13:16.762Z,6.80
2019-03-16T22:18:21.545Z,6.70
2019-03-16T22:23:26.373Z,6.70
2019-03-16T22:28:31.013Z,6.70
2019-03-16T22:33:35.428Z,6.70
2019-03-16T22:38:40.047Z,6.60
2019-03-16T22:43:44.944Z,6.70
2019-03-16T22:48:49.365Z,6.60
2019-03-16T22:53:53.801Z,6.60
2019-03-16T22:58:58.234Z,6.60
2019-03-16T23:04:07.179Z,6.60
2019-03-16T23:09:09.225Z,6.50
2019-03-16T23:14:14.006Z,6.50
2019-03-16T23:19:18.506Z,6.50
2019-03-16T23:24:22.941Z,6.50
2019-03-16T23:29:27.606Z,6.40
2019-03-16T23:34:32.361Z,6.40
2019-03-16T23:39:36.863Z,6.40
2019-03-16T23:44:41.294Z,6.30
2019-03-16T23:49:45.937Z,6.30
2019-03-16T23:54:50.435Z,6.30
2019-03-16T23:59:56.058Z,6.20
